createdAt,value
2023-02-06T00:01:37.886Z,6.93
2023-02-06T00:04:06.237Z,7.43
2023-02-06T00:06:34.377Z,9.73
2023-02-06T00:09:03.153Z,6.73
2023-02-06T00:11:31.430Z,7.87
2023-02-06T00:14:00.090Z,6.07
2023-02-06T00:16:31.778Z,6.30
2023-02-06T00:19:00.641Z,5.70
2023-02-06T00:21:29.829Z,7.10
2023-02-06T00:24:00.132Z,7.73
2023-02-06T00:26:28.357Z,7.57
2023-02-06T00:28:56.517Z,7.13
2023-02-06T00:31:25.971Z,6.27
2023-02-06T00:33:55.544Z,6.07
2023-02-06T00:36:23.685Z,6.40
2023-02-06T00:38:53.184Z,7.03
2023-02-06T00:41:21.434Z,6.13
2023-02-06T00:43:50.428Z,6.63
2023-02-06T00:46:18.537Z,6.20
2023-02-06T00:48:46.670Z,6.40
2023-02-06T00:51:16.199Z,5.80
2023-02-06T00:53:44.326Z,6.23
2023-02-06T00:56:12.453Z,6.40
2023-02-06T00:58:40.577Z,6.27
2023-02-06T01:01:08.992Z,6.27
2023-02-06T01:03:37.190Z,5.93
2023-02-06T01:06:05.466Z,6.27
2023-02-06T01:08:34.967Z,6.63
2023-02-06T01:11:03.092Z,6.57
2023-02-06T01:13:31.190Z,6.90
2023-02-06T01:15:59.264Z,6.73
2023-02-06T01:18:27.502Z,6.30
2023-02-06T01:20:55.625Z,6.37
2023-02-06T01:23:25.965Z,6.67
2023-02-06T01:25:55.641Z,7.10
2023-02-06T01:28:23.691Z,6.60
2023-02-06T01:30:51.911Z,6.70
2023-02-06T01:33:20.032Z,6.90
2023-02-06T01:35:56.293Z,6.87
2023-02-06T01:38:24.509Z,7.07
2023-02-06T01:40:59.384Z,7.43
2023-02-06T01:43:31.861Z,8.13
2023-02-06T01:46:00.553Z,7.73
2023-02-06T01:48:34.260Z,7.70
2023-02-06T01:51:04.710Z,7.37
2023-02-06T01:53:33.927Z,8.17
2023-02-06T01:56:06.873Z,7.80
2023-02-06T01:58:39.550Z,7.70
2023-02-06T02:01:08.561Z,8.00
2023-02-06T02:03:39.074Z,7.63
2023-02-06T02:06:10.886Z,7.83
2023-02-06T02:08:41.053Z,7.80
2023-02-06T02:11:12.806Z,8.03
2023-02-06T02:13:41.181Z,8.10
2023-02-06T02:16:16.082Z,8.13
2023-02-06T02:19:16.474Z,8.33
2023-02-06T02:22:20.209Z,8.17
2023-02-06T02:25:04.796Z,7.73
2023-02-06T02:27:50.013Z,8.63
2023-02-06T02:30:45.591Z,8.73
2023-02-06T02:33:42.321Z,9.17
2023-02-06T02:36:17.260Z,9.37
2023-02-06T02:38:58.341Z,8.83
2023-02-06T02:41:30.212Z,8.30
2023-02-06T02:44:06.406Z,8.70
2023-02-06T02:46:38.847Z,8.20
2023-02-06T02:49:10.356Z,8.43
2023-02-06T02:51:41.568Z,8.50
2023-02-06T02:54:10.389Z,7.67
2023-02-06T02:56:38.947Z,7.43
2023-02-06T02:59:12.501Z,7.67
2023-02-06T03:01:47.042Z,7.43
2023-02-06T03:04:19.000Z,7.83
2023-02-06T03:07:10.032Z,7.87
2023-02-06T03:09:52.085Z,7.53
2023-02-06T03:12:25.733Z,7.70
2023-02-06T03:14:58.537Z,7.07
2023-02-06T03:17:32.416Z,7.60
2023-02-06T03:20:03.540Z,6.53
2023-02-06T03:22:35.906Z,6.27
2023-02-06T03:25:06.483Z,7.13
2023-02-06T03:27:37.102Z,6.30
2023-02-06T03:30:07.035Z,6.37
2023-02-06T03:32:38.243Z,6.20
2023-02-06T03:35:11.136Z,6.23
2023-02-06T03:37:41.103Z,5.80
2023-02-06T03:40:10.583Z,5.93
2023-02-06T03:42:42.621Z,6.03
2023-02-06T03:45:16.877Z,6.17
2023-02-06T03:47:47.569Z,5.43
2023-02-06T03:50:17.070Z,5.73
2023-02-06T03:52:50.214Z,6.00
2023-02-06T03:55:21.180Z,5.50
2023-02-06T03:57:52.669Z,5.20
2023-02-06T04:00:21.503Z,5.60
2023-02-06T04:02:52.347Z,5.80
2023-02-06T04:05:20.783Z,5.27
2023-02-06T04:07:50.631Z,5.23
2023-02-06T04:10:19.079Z,4.90
2023-02-06T04:12:47.570Z,4.33
2023-02-06T04:15:15.929Z,4.60
2023-02-06T04:17:58.745Z,4.00
2023-02-06T04:20:27.262Z,4.20
2023-02-06T04:22:56.874Z,4.57
2023-02-06T04:25:25.222Z,4.60
2023-02-06T04:27:53.500Z,4.77
2023-02-06T04:30:21.953Z,4.80
2023-02-06T04:32:50.087Z,5.20
2023-02-06T04:35:18.313Z,4.53
2023-02-06T04:37:46.355Z,4.33
2023-02-06T04:40:15.892Z,5.23
2023-02-06T04:42:43.990Z,5.10
2023-02-06T04:45:12.138Z,6.20
2023-02-06T04:47:40.499Z,4.87
2023-02-06T04:50:10.430Z,4.67
2023-02-06T04:52:38.597Z,5.03
2023-02-06T04:55:07.285Z,5.10
2023-02-06T04:57:36.758Z,5.20
2023-02-06T05:00:06.417Z,4.50
2023-02-06T05:02:37.510Z,5.17
2023-02-06T05:05:09.509Z,5.37
2023-02-06T05:07:38.397Z,5.70
2023-02-06T05:10:08.924Z,5.10
2023-02-06T05:12:38.666Z,5.47
2023-02-06T05:15:07.737Z,4.87
2023-02-06T05:17:35.871Z,5.43
2023-02-06T05:20:04.627Z,6.40
2023-02-06T05:22:32.921Z,6.30
2023-02-06T05:25:01.081Z,6.10
2023-02-06T05:27:29.186Z,6.50
2023-02-06T05:29:58.650Z,6.53
2023-02-06T05:32:26.728Z,6.63
2023-02-06T05:34:54.909Z,7.33
2023-02-06T05:37:23.082Z,6.47
2023-02-06T05:39:51.222Z,5.90
2023-02-06T05:42:19.468Z,5.97
2023-02-06T05:44:47.644Z,6.80
2023-02-06T05:47:17.300Z,6.53
2023-02-06T05:49:45.397Z,6.70
2023-02-06T05:52:13.573Z,5.47
2023-02-06T05:54:41.948Z,6.70
2023-02-06T05:57:10.133Z,6.40
2023-02-06T05:59:38.369Z,5.83
2023-02-06T06:02:06.737Z,6.37
2023-02-06T06:04:36.256Z,6.20
2023-02-06T06:07:04.415Z,6.97
2023-02-06T06:09:32.539Z,6.57
2023-02-06T06:12:00.598Z,7.03
2023-02-06T06:14:28.925Z,6.70
2023-02-06T06:16:57.068Z,6.47
2023-02-06T06:19:25.204Z,6.80
2023-02-06T06:21:57.159Z,6.93
2023-02-06T06:24:26.369Z,7.10
2023-02-06T06:26:54.524Z,6.93
2023-02-06T06:29:22.923Z,6.07
2023-02-06T06:31:51.120Z,7.20
2023-02-06T06:34:19.388Z,6.83
2023-02-06T06:36:47.447Z,6.83
2023-02-06T06:39:16.879Z,6.53
2023-02-06T06:41:44.995Z,6.90
2023-02-06T06:44:13.071Z,8.90
2023-02-06T06:46:41.126Z,7.03
2023-02-06T06:49:09.304Z,7.33
2023-02-06T06:51:37.574Z,7.43
2023-02-06T06:54:06.056Z,7.67
2023-02-06T06:56:35.542Z,9.00
2023-02-06T06:59:03.668Z,8.20
2023-02-06T07:01:31.730Z,8.53
2023-02-06T07:04:00.378Z,8.93
2023-02-06T07:06:29.129Z,7.60
2023-02-06T07:08:57.268Z,8.57
2023-02-06T07:11:26.123Z,8.20
2023-02-06T07:13:55.632Z,7.97
2023-02-06T07:16:24.606Z,7.63
2023-02-06T07:18:53.018Z,8.43
2023-02-06T07:21:21.479Z,8.00
2023-02-06T07:23:49.604Z,7.90
2023-02-06T07:26:17.679Z,8.47
2023-02-06T07:28:46.109Z,8.50
2023-02-06T07:31:15.648Z,8.23
2023-02-06T07:33:43.768Z,7.77
2023-02-06T07:36:12.376Z,7.13
2023-02-06T07:38:40.843Z,8.20
2023-02-06T07:41:11.165Z,7.83
2023-02-06T07:43:40.824Z,8.07
2023-02-06T07:46:08.913Z,8.37
2023-02-06T07:48:42.486Z,8.83
2023-02-06T07:51:11.167Z,8.37
2023-02-06T07:53:39.658Z,9.30
2023-02-06T07:56:13.129Z,9.10
2023-02-06T07:58:41.533Z,8.97
2023-02-06T08:01:10.689Z,10.23
2023-02-06T08:03:40.277Z,10.90
2023-02-06T08:06:12.267Z,9.43
2023-02-06T08:08:40.382Z,9.40
2023-02-06T08:11:09.598Z,7.97
2023-02-06T08:13:37.906Z,8.73
2023-02-06T08:16:07.444Z,9.53
2023-02-06T08:18:36.182Z,9.93
2023-02-06T08:21:07.691Z,8.50
2023-02-06T08:23:35.784Z,9.33
2023-02-06T08:26:04.917Z,9.07
2023-02-06T08:28:35.245Z,10.57
2023-02-06T08:31:09.915Z,8.10
2023-02-06T08:33:38.211Z,9.30
2023-02-06T08:36:09.228Z,10.23
2023-02-06T08:38:38.216Z,10.23
2023-02-06T08:41:06.844Z,12.13
2023-02-06T08:43:34.982Z,13.47
2023-02-06T08:46:03.202Z,10.67
2023-02-06T08:48:31.314Z,10.23
2023-02-06T08:51:08.148Z,8.10
2023-02-06T08:53:36.771Z,10.67
2023-02-06T08:56:07.717Z,8.77
2023-02-06T08:58:36.661Z,9.03
2023-02-06T09:01:08.356Z,9.53
2023-02-06T09:03:36.935Z,9.43
2023-02-06T09:06:10.307Z,8.87
2023-02-06T09:08:39.564Z,9.60
2023-02-06T09:11:08.133Z,10.67
2023-02-06T09:13:36.743Z,11.27
2023-02-06T09:16:05.807Z,12.10
2023-02-06T09:18:34.394Z,12.70
2023-02-06T09:21:12.445Z,13.10
2023-02-06T09:23:42.312Z,10.73
2023-02-06T09:26:10.976Z,10.47
2023-02-06T09:28:39.258Z,10.57
2023-02-06T09:31:08.496Z,11.00
2023-02-06T09:33:39.751Z,11.27
2023-02-06T09:36:11.965Z,11.63
2023-02-06T09:38:42.726Z,11.53
2023-02-06T09:41:18.965Z,11.67
2023-02-06T09:43:51.730Z,12.20
2023-02-06T09:46:23.483Z,12.90
2023-02-06T09:48:52.306Z,13.47
2023-02-06T09:51:32.294Z,13.33
2023-02-06T09:54:09.845Z,12.93
2023-02-06T09:56:47.143Z,13.87
2023-02-06T09:59:26.225Z,14.00
2023-02-06T10:02:06.563Z,12.50
2023-02-06T10:04:44.559Z,13.27
2023-02-06T10:07:33.698Z,13.00
2023-02-06T10:10:05.444Z,13.13
2023-02-06T10:12:39.958Z,13.57
2023-02-06T10:15:14.621Z,13.47
2023-02-06T10:17:49.869Z,14.50
2023-02-06T10:20:22.149Z,13.27
2023-02-06T10:23:00.123Z,13.97
2023-02-06T10:25:33.213Z,13.93
2023-02-06T10:28:09.421Z,14.03
2023-02-06T10:30:50.311Z,13.13
2023-02-06T10:33:29.988Z,12.07
2023-02-06T10:36:04.837Z,13.00
2023-02-06T10:39:06.000Z,12.93
2023-02-06T10:41:42.244Z,11.40
2023-02-06T10:44:20.295Z,13.07
2023-02-06T10:46:51.013Z,11.60
2023-02-06T10:49:27.766Z,11.30
2023-02-06T10:51:59.076Z,11.07
2023-02-06T10:54:34.796Z,10.73
2023-02-06T10:57:04.244Z,10.43
2023-02-06T10:59:35.557Z,10.53
2023-02-06T11:02:19.587Z,10.17
2023-02-06T11:04:52.925Z,10.87
2023-02-06T11:07:27.057Z,9.57
2023-02-06T11:09:56.947Z,9.93
2023-02-06T11:12:31.211Z,10.33
2023-02-06T11:15:04.892Z,9.50
2023-02-06T11:17:33.496Z,10.37
2023-02-06T11:20:16.221Z,10.23
2023-02-06T11:22:52.666Z,9.80
2023-02-06T11:25:28.415Z,10.67
2023-02-06T11:27:57.268Z,10.47
2023-02-06T11:30:31.958Z,11.03
2023-02-06T11:33:04.864Z,11.20
2023-02-06T11:35:38.300Z,10.80
2023-02-06T11:38:14.351Z,11.10
2023-02-06T11:40:44.785Z,10.40
2023-02-06T11:43:21.355Z,9.70
2023-02-06T11:45:52.271Z,10.13
2023-02-06T11:48:39.347Z,9.57
2023-02-06T11:51:08.447Z,9.83
2023-02-06T11:53:37.866Z,9.67
2023-02-06T11:56:18.202Z,9.40
2023-02-06T11:58:46.923Z,10.37
2023-02-06T12:01:20.863Z,10.60
2023-02-06T12:03:57.344Z,11.20
2023-02-06T12:06:31.155Z,10.57
2023-02-06T12:09:01.089Z,11.30
2023-02-06T12:11:37.796Z,10.53
2023-02-06T12:14:12.361Z,11.57
2023-02-06T12:16:45.505Z,11.60
2023-02-06T12:19:18.297Z,11.83
2023-02-06T12:21:49.884Z,12.30
2023-02-06T12:24:30.121Z,11.60
2023-02-06T12:27:05.162Z,13.23
2023-02-06T12:29:37.366Z,12.30
2023-02-06T12:32:14.944Z,12.17
2023-02-06T12:34:53.694Z,12.87
2023-02-06T12:37:31.417Z,12.07
2023-02-06T12:40:00.957Z,11.87
2023-02-06T12:42:44.295Z,12.33
2023-02-06T12:45:21.540Z,13.93
2023-02-06T12:47:55.171Z,13.60
2023-02-06T12:50:28.127Z,13.87
2023-02-06T12:52:59.927Z,13.00
2023-02-06T12:55:31.000Z,15.33
2023-02-06T12:58:00.690Z,14.13
2023-02-06T13:00:51.497Z,15.10
2023-02-06T13:03:27.157Z,15.43
2023-02-06T13:06:02.503Z,14.80
2023-02-06T13:08:42.149Z,13.23
2023-02-06T13:11:15.772Z,15.07
2023-02-06T13:13:45.643Z,13.73
2023-02-06T13:16:13.793Z,15.00
2023-02-06T13:19:03.391Z,13.83
2023-02-06T13:21:35.132Z,13.30
2023-02-06T13:24:21.809Z,13.43
2023-02-06T13:27:05.052Z,13.60
2023-02-06T13:29:37.507Z,14.60
2023-02-06T13:32:48.702Z,13.70
2023-02-06T13:35:25.842Z,13.43
2023-02-06T13:38:13.205Z,14.03
2023-02-06T13:40:41.317Z,14.10
2023-02-06T13:43:18.727Z,13.70
2023-02-06T13:45:54.421Z,14.40
2023-02-06T13:48:47.517Z,14.00
2023-02-06T13:51:48.443Z,14.13
2023-02-06T13:54:37.464Z,13.80
2023-02-06T13:57:26.347Z,13.87
2023-02-06T14:00:00.640Z,14.83
2023-02-06T14:02:36.528Z,13.97
2023-02-06T14:05:07.614Z,14.40
2023-02-06T14:08:00.797Z,13.00
2023-02-06T14:10:44.992Z,13.57
2023-02-06T14:13:24.655Z,15.53
2023-02-06T14:16:04.555Z,14.10
2023-02-06T14:18:44.479Z,13.27
2023-02-06T14:21:26.930Z,15.33
2023-02-06T14:24:27.632Z,13.90
2023-02-06T14:27:06.051Z,13.00
2023-02-06T14:29:44.797Z,14.17
2023-02-06T14:32:30.338Z,14.13
2023-02-06T14:35:18.457Z,14.47
2023-02-06T14:38:03.106Z,14.63
2023-02-06T14:40:36.562Z,13.30
2023-02-06T14:43:08.990Z,13.97
2023-02-06T14:45:42.404Z,15.17
2023-02-06T14:48:20.384Z,14.10
2023-02-06T14:50:54.841Z,13.40
2023-02-06T14:53:28.167Z,12.93
2023-02-06T14:56:08.653Z,11.07
2023-02-06T14:58:37.392Z,12.50
2023-02-06T15:01:21.521Z,11.87
2023-02-06T15:03:52.492Z,11.90
2023-02-06T15:06:33.398Z,11.33
2023-02-06T15:09:02.437Z,11.97
2023-02-06T15:11:33.353Z,11.77
2023-02-06T15:14:05.842Z,10.83
2023-02-06T15:16:47.135Z,11.63
2023-02-06T15:19:20.410Z,11.30
2023-02-06T15:21:51.053Z,11.53
2023-02-06T15:24:44.322Z,11.40
2023-02-06T15:27:21.676Z,11.03
2023-02-06T15:29:50.818Z,10.80
2023-02-06T15:32:26.949Z,11.43
2023-02-06T15:34:55.324Z,10.43
2023-02-06T15:37:28.928Z,10.43
2023-02-06T15:40:02.611Z,9.67
2023-02-06T15:42:31.440Z,10.93
2023-02-06T15:44:59.872Z,10.47
2023-02-06T15:47:28.105Z,10.17
2023-02-06T15:50:00.636Z,11.47
2023-02-06T15:52:42.684Z,10.93
2023-02-06T15:55:27.258Z,10.47
2023-02-06T15:57:56.656Z,11.03
2023-02-06T16:00:27.449Z,11.30
2023-02-06T16:03:02.667Z,11.57
2023-02-06T16:05:33.015Z,11.77
2023-02-06T16:08:04.187Z,10.83
2023-02-06T16:10:36.836Z,11.90
2023-02-06T16:13:10.728Z,10.30
2023-02-06T16:15:40.721Z,11.87
2023-02-06T16:18:26.210Z,11.83
2023-02-06T16:21:12.803Z,11.77
2023-02-06T16:23:49.008Z,11.60
2023-02-06T16:26:19.396Z,11.20
2023-02-06T16:28:54.742Z,13.63
2023-02-06T16:31:23.141Z,13.13
2023-02-06T16:33:53.543Z,13.93
2023-02-06T16:36:23.475Z,11.70
2023-02-06T16:39:03.384Z,12.27
2023-02-06T16:41:34.188Z,12.83
2023-02-06T16:44:04.216Z,14.20
2023-02-06T16:46:32.797Z,11.87
2023-02-06T16:49:01.484Z,11.33
2023-02-06T16:51:31.956Z,12.03
2023-02-06T16:54:01.565Z,10.90
2023-02-06T16:56:29.692Z,11.03
2023-02-06T16:58:57.904Z,11.10
2023-02-06T17:01:29.462Z,10.57
2023-02-06T17:03:57.742Z,9.57
2023-02-06T17:06:27.620Z,10.03
2023-02-06T17:08:58.774Z,10.37
2023-02-06T17:11:28.514Z,10.40
2023-02-06T17:13:56.871Z,11.13
2023-02-06T17:16:26.730Z,10.03
2023-02-06T17:18:55.195Z,10.50
2023-02-06T17:21:25.055Z,10.47
2023-02-06T17:23:53.308Z,10.07
2023-02-06T17:26:24.119Z,11.00
2023-02-06T17:28:53.831Z,10.63
2023-02-06T17:31:22.119Z,10.37
2023-02-06T17:33:50.584Z,11.13
2023-02-06T17:36:22.405Z,11.23
2023-02-06T17:38:50.574Z,10.73
2023-02-06T17:41:18.697Z,11.23
2023-02-06T17:43:46.788Z,10.23
2023-02-06T17:46:16.507Z,11.47
2023-02-06T17:48:44.627Z,12.80
2023-02-06T17:51:12.863Z,18.23
2023-02-06T17:53:41.318Z,18.97
2023-02-06T17:56:12.791Z,17.67
2023-02-06T17:58:41.639Z,19.17
2023-02-06T18:01:12.861Z,19.53
2023-02-06T18:03:43.280Z,19.50
2023-02-06T18:06:11.893Z,21.67
2023-02-06T18:08:41.533Z,14.13
2023-02-06T18:11:11.485Z,11.70
2023-02-06T18:13:40.289Z,12.37
2023-02-06T18:16:13.689Z,12.63
2023-02-06T18:18:43.475Z,11.13
2023-02-06T18:21:12.251Z,11.40
2023-02-06T18:23:42.274Z,13.53
2023-02-06T18:26:11.435Z,14.67
2023-02-06T18:28:40.762Z,14.63
2023-02-06T18:31:23.217Z,14.73
2023-02-06T18:33:52.960Z,13.70
2023-02-06T18:36:21.456Z,13.27
2023-02-06T18:38:49.644Z,13.80
2023-02-06T18:41:35.489Z,12.43
2023-02-06T18:44:04.671Z,14.73
2023-02-06T18:46:32.901Z,14.73
2023-02-06T18:49:02.684Z,15.00
2023-02-06T18:51:31.216Z,13.40
2023-02-06T18:53:59.578Z,15.00
2023-02-06T18:56:27.848Z,13.10
2023-02-06T18:58:56.064Z,13.97
2023-02-06T19:01:25.448Z,13.83
2023-02-06T19:03:54.670Z,14.00
2023-02-06T19:06:28.859Z,13.43
2023-02-06T19:08:57.269Z,12.03
2023-02-06T19:11:26.218Z,12.87
2023-02-06T19:13:54.682Z,14.50
2023-02-06T19:16:23.172Z,13.93
2023-02-06T19:18:51.375Z,14.80
2023-02-06T19:21:21.754Z,14.93
2023-02-06T19:23:56.180Z,15.60
2023-02-06T19:26:25.038Z,17.70
2023-02-06T19:28:53.484Z,17.93
2023-02-06T19:31:24.056Z,19.43
2023-02-06T19:33:54.011Z,22.37
2023-02-06T19:36:23.240Z,24.00
2023-02-06T19:38:56.454Z,30.17
2023-02-06T19:41:26.807Z,24.47
2023-02-06T19:43:56.576Z,24.23
2023-02-06T19:46:26.696Z,18.57
2023-02-06T19:48:55.814Z,17.23
2023-02-06T19:51:26.562Z,25.33
2023-02-06T19:53:57.238Z,47.63
2023-02-06T19:56:27.630Z,41.43
2023-02-06T19:58:56.567Z,92.50
2023-02-06T20:01:25.576Z,35.97
2023-02-06T20:03:53.924Z,20.87
2023-02-06T20:06:22.389Z,18.63
2023-02-06T20:08:51.295Z,17.37
2023-02-06T20:11:22.897Z,15.60
2023-02-06T20:13:53.786Z,17.47
2023-02-06T20:16:23.943Z,18.93
2023-02-06T20:18:52.376Z,18.50
2023-02-06T20:21:23.220Z,18.83
2023-02-06T20:23:51.462Z,17.87
2023-02-06T20:26:22.253Z,16.03
2023-02-06T20:28:50.705Z,16.60
2023-02-06T20:31:18.989Z,15.30
2023-02-06T20:33:47.962Z,17.70
2023-02-06T20:36:18.748Z,16.47
2023-02-06T20:38:49.749Z,16.70
2023-02-06T20:41:18.694Z,17.13
2023-02-06T20:43:48.660Z,16.23
2023-02-06T20:46:17.609Z,17.17
2023-02-06T20:48:47.046Z,16.30
2023-02-06T20:51:15.578Z,15.37
2023-02-06T20:53:43.652Z,17.30
2023-02-06T20:56:14.521Z,16.33
2023-02-06T20:58:42.838Z,15.60
2023-02-06T21:01:18.277Z,16.47
2023-02-06T21:03:47.707Z,17.23
2023-02-06T21:06:16.610Z,16.53
2023-02-06T21:08:47.256Z,17.80
2023-02-06T21:11:15.418Z,17.23
2023-02-06T21:13:44.034Z,17.47
2023-02-06T21:16:13.652Z,19.00
2023-02-06T21:18:43.241Z,20.20
2023-02-06T21:21:14.165Z,19.67
2023-02-06T21:23:43.731Z,20.07
2023-02-06T21:26:13.721Z,18.87
2023-02-06T21:28:42.423Z,18.73
2023-02-06T21:31:14.177Z,16.97
2023-02-06T21:33:44.381Z,20.23
2023-02-06T21:36:12.499Z,20.73
2023-02-06T21:38:41.431Z,20.37
2023-02-06T21:41:11.946Z,19.87
2023-02-06T21:43:40.192Z,19.33
2023-02-06T21:46:08.886Z,19.73
2023-02-06T21:48:37.542Z,18.93
2023-02-06T21:51:11.354Z,20.30
2023-02-06T21:53:39.916Z,20.37
2023-02-06T21:56:09.468Z,20.03
2023-02-06T21:58:37.693Z,19.60
2023-02-06T22:01:08.929Z,19.37
2023-02-06T22:03:37.643Z,20.03
2023-02-06T22:06:08.707Z,18.97
2023-02-06T22:08:39.342Z,19.90
2023-02-06T22:11:13.479Z,21.77
2023-02-06T22:13:42.692Z,20.13
2023-02-06T22:16:13.183Z,18.97
2023-02-06T22:18:41.647Z,18.73
2023-02-06T22:21:12.967Z,19.50
2023-02-06T22:23:43.661Z,19.30
2023-02-06T22:26:14.218Z,18.10
2023-02-06T22:28:42.767Z,21.47
2023-02-06T22:31:12.780Z,35.00
2023-02-06T22:33:41.172Z,22.97
2023-02-06T22:36:12.232Z,19.23
2023-02-06T22:38:42.532Z,55.00
2023-02-06T22:41:14.668Z,31.33
2023-02-06T22:43:44.091Z,22.30
2023-02-06T22:46:19.523Z,19.50
2023-02-06T22:48:47.907Z,17.67
2023-02-06T22:51:16.320Z,16.73
2023-02-06T22:53:46.195Z,17.10
2023-02-06T22:56:31.664Z,16.03
2023-02-06T22:59:02.138Z,18.27
2023-02-06T23:01:33.055Z,17.07
2023-02-06T23:04:02.310Z,18.40
2023-02-06T23:06:31.962Z,17.70
2023-02-06T23:09:03.144Z,16.83
2023-02-06T23:11:32.057Z,17.27
2023-02-06T23:14:02.698Z,19.37
2023-02-06T23:16:32.265Z,17.60
2023-02-06T23:19:04.427Z,17.70
2023-02-06T23:21:33.712Z,17.70
2023-02-06T23:24:03.294Z,16.73
2023-02-06T23:26:31.761Z,17.23
2023-02-06T23:29:00.937Z,18.20
2023-02-06T23:31:30.372Z,16.20
2023-02-06T23:33:58.545Z,18.70
2023-02-06T23:36:29.542Z,18.13
2023-02-06T23:38:57.858Z,17.87
2023-02-06T23:41:29.295Z,19.17
2023-02-06T23:43:59.808Z,18.43
2023-02-06T23:46:29.727Z,21.10
2023-02-06T23:48:58.076Z,18.77
2023-02-06T23:51:26.877Z,100.07
2023-02-06T23:53:55.016Z,44.00
2023-02-06T23:56:26.825Z,39.97
2023-02-06T23:58:57.084Z,25.70
